sensor_id;sensor_type;location;lat;lon;timestamp;P1;durP1;ratioP1;P2;durP2;ratioP2
76035;SDS011;64732;56.314;44.068;2023-05-10T16:54:18;4.80;;;1.90;;
76035;SDS011;64732;56.314;44.068;2023-05-10T16:56:39;7.43;;;2.58;;
76035;SDS011;64732;56.314;44.068;2023-05-10T16:59:10;5.13;;;1.83;;
76035;SDS011;64732;56.314;44.068;2023-05-10T17:01:32;6.95;;;2.20;;
76035;SDS011;64732;56.314;44.068;2023-05-10T17:03:53;7.35;;;3.30;;
76035;SDS011;64732;56.314;44.068;2023-05-10T17:06:18;8.80;;;2.83;;
76035;SDS011;64732;56.314;44.068;2023-05-10T17:08:39;14.27;;;4.22;;
76035;SDS011;64732;56.314;44.068;2023-05-10T17:11:03;11.10;;;3.97;;
76035;SDS011;64732;56.314;44.068;2023-05-10T17:13:24;14.38;;;4.13;;
76035;SDS011;64732;56.314;44.068;2023-05-10T17:15:45;11.93;;;4.20;;
76035;SDS011;64732;56.314;44.068;2023-05-10T17:18:06;10.13;;;4.30;;
76035;SDS011;64732;56.314;44.068;2023-05-10T17:20:27;13.93;;;5.57;;
76035;SDS011;64732;56.314;44.068;2023-05-10T17:22:48;10.63;;;5.65;;
76035;SDS011;64732;56.314;44.068;2023-05-10T17:25:09;15.45;;;5.32;;
76035;SDS011;64732;56.314;44.068;2023-05-10T17:27:32;7.65;;;3.60;;
76035;SDS011;64732;56.314;44.068;2023-05-10T17:29:54;8.63;;;4.25;;
76035;SDS011;64732;56.314;44.068;2023-05-10T17:32:15;8.95;;;4.10;;
76035;SDS011;64732;56.314;44.068;2023-05-10T17:34:37;6.85;;;3.20;;
76035;SDS011;64732;56.314;44.068;2023-05-10T17:36:58;8.18;;;2.70;;
76035;SDS011;64732;56.314;44.068;2023-05-10T17:39:19;6.55;;;2.35;;
76035;SDS011;64732;56.314;44.068;2023-05-10T17:41:40;8.35;;;3.65;;
76035;SDS011;64732;56.314;44.068;2023-05-10T17:44:04;7.60;;;3.28;;
76035;SDS011;64732;56.314;44.068;2023-05-10T17:46:25;9.45;;;3.25;;
76035;SDS011;64732;56.314;44.068;2023-05-10T17:48:46;6.18;;;2.65;;
76035;SDS011;64732;56.314;44.068;2023-05-10T17:51:07;7.07;;;3.05;;
76035;SDS011;64732;56.314;44.068;2023-05-10T17:53:28;6.07;;;2.60;;
76035;SDS011;64732;56.314;44.068;2023-05-10T17:55:50;5.60;;;2.00;;
76035;SDS011;64732;56.314;44.068;2023-05-10T17:58:11;4.95;;;1.85;;
76035;SDS011;64732;56.314;44.068;2023-05-10T18:00:35;3.60;;;1.63;;
76035;SDS011;64732;56.314;44.068;2023-05-10T18:02:56;3.95;;;1.70;;
76035;SDS011;64732;56.314;44.068;2023-05-10T18:05:17;11.98;;;4.35;;
76035;SDS011;64732;56.314;44.068;2023-05-10T18:07:38;7.18;;;3.55;;
76035;SDS011;64732;56.314;44.068;2023-05-10T18:09:59;5.25;;;2.58;;
76035;SDS011;64732;56.314;44.068;2023-05-10T18:12:20;5.43;;;1.80;;
76035;SDS011;64732;56.314;44.068;2023-05-10T18:14:41;4.65;;;1.67;;
76035;SDS011;64732;56.314;44.068;2023-05-10T18:17:05;3.47;;;1.67;;
76035;SDS011;64732;56.314;44.068;2023-05-10T18:19:26;7.97;;;1.58;;
76035;SDS011;64732;56.314;44.068;2023-05-10T18:21:47;3.15;;;1.50;;
76035;SDS011;64732;56.314;44.068;2023-05-10T18:24:08;3.22;;;1.42;;
76035;SDS011;64732;56.314;44.068;2023-05-10T18:26:29;5.68;;;1.65;;
76035;SDS011;64732;56.314;44.068;2023-05-10T18:28:50;6.03;;;1.70;;
76035;SDS011;64732;56.314;44.068;2023-05-10T18:31:11;8.15;;;1.60;;
76035;SDS011;64732;56.314;44.068;2023-05-10T18:33:35;6.18;;;1.75;;
76035;SDS011;64732;56.314;44.068;2023-05-10T18:35:56;6.00;;;1.50;;
76035;SDS011;64732;56.314;44.068;2023-05-10T18:38:17;6.80;;;1.90;;
76035;SDS011;64732;56.314;44.068;2023-05-10T18:40:38;4.65;;;1.73;;
76035;SDS011;64732;56.314;44.068;2023-05-10T18:43:00;4.10;;;1.77;;
76035;SDS011;64732;56.314;44.068;2023-05-10T18:45:21;5.97;;;2.47;;
76035;SDS011;64732;56.314;44.068;2023-05-10T18:47:42;5.60;;;1.60;;
76035;SDS011;64732;56.314;44.068;2023-05-10T18:50:06;5.68;;;1.80;;
76035;SDS011;64732;56.314;44.068;2023-05-10T18:52:28;6.32;;;2.03;;
76035;SDS011;64732;56.314;44.068;2023-05-10T18:54:49;7.00;;;1.95;;
76035;SDS011;64732;56.314;44.068;2023-05-10T18:57:10;3.38;;;1.73;;
76035;SDS011;64732;56.314;44.068;2023-05-10T18:59:31;3.38;;;1.45;;
76035;SDS011;64732;56.314;44.068;2023-05-10T19:01:52;4.43;;;2.47;;
76035;SDS011;64732;56.314;44.068;2023-05-10T19:04:13;3.95;;;1.70;;
76035;SDS011;64732;56.314;44.068;2023-05-10T19:06:37;4.63;;;1.45;;
76035;SDS011;64732;56.314;44.068;2023-05-10T19:08:58;3.60;;;1.70;;
76035;SDS011;64732;56.314;44.068;2023-05-10T19:11:19;3.72;;;2.05;;
76035;SDS011;64732;56.314;44.068;2023-05-10T19:13:40;6.22;;;1.90;;
76035;SDS011;64732;56.314;44.068;2023-05-10T19:16:04;3.50;;;1.83;;
76035;SDS011;64732;56.314;44.068;2023-05-10T19:18:25;5.40;;;1.33;;
76035;SDS011;64732;56.314;44.068;2023-05-10T19:20:47;4.50;;;1.50;;
76035;SDS011;64732;56.314;44.068;2023-05-10T19:23:10;4.72;;;1.58;;
76035;SDS011;64732;56.314;44.068;2023-05-10T19:25:31;4.63;;;1.70;;
76035;SDS011;64732;56.314;44.068;2023-05-10T19:27:52;4.13;;;1.80;;
76035;SDS011;64732;56.314;44.068;2023-05-10T19:30:13;3.97;;;1.88;;
76035;SDS011;64732;56.314;44.068;2023-05-10T19:32:34;5.68;;;1.60;;
76035;SDS011;64732;56.314;44.068;2023-05-10T19:34:55;8.80;;;3.10;;
76035;SDS011;64732;56.314;44.068;2023-05-10T19:37:16;3.40;;;1.50;;
76035;SDS011;64732;56.314;44.068;2023-05-10T19:39:39;10.55;;;2.03;;
76035;SDS011;64732;56.314;44.068;2023-05-10T19:42:00;4.93;;;1.80;;
76035;SDS011;64732;56.314;44.068;2023-05-10T19:44:21;7.55;;;2.38;;
76035;SDS011;64732;56.314;44.068;2023-05-10T19:46:42;4.07;;;1.63;;
76035;SDS011;64732;56.314;44.068;2023-05-10T19:49:03;11.13;;;2.20;;
76035;SDS011;64732;56.314;44.068;2023-05-10T19:51:24;5.32;;;1.70;;
76035;SDS011;64732;56.314;44.068;2023-05-10T19:53:45;3.85;;;1.77;;
76035;SDS011;64732;56.314;44.068;2023-05-10T19:56:08;4.22;;;1.70;;
76035;SDS011;64732;56.314;44.068;2023-05-10T19:58:30;3.58;;;1.45;;
76035;SDS011;64732;56.314;44.068;2023-05-10T20:00:51;3.40;;;1.50;;
76035;SDS011;64732;56.314;44.068;2023-05-10T20:03:12;3.53;;;1.65;;
76035;SDS011;64732;56.314;44.068;2023-05-10T20:05:34;3.97;;;1.38;;
76035;SDS011;64732;56.314;44.068;2023-05-10T20:07:55;3.42;;;1.65;;
76035;SDS011;64732;56.314;44.068;2023-05-10T20:10:16;6.75;;;1.80;;
76035;SDS011;64732;56.314;44.068;2023-05-10T20:12:40;4.30;;;1.55;;
76035;SDS011;64732;56.314;44.068;2023-05-10T20:15:07;5.90;;;1.73;;
76035;SDS011;64732;56.314;44.068;2023-05-10T20:17:44;4.75;;;1.60;;
76035;SDS011;64732;56.314;44.068;2023-05-10T20:20:06;3.40;;;2.00;;
76035;SDS011;64732;56.314;44.068;2023-05-10T20:22:27;4.70;;;1.38;;
76035;SDS011;64732;56.314;44.068;2023-05-10T20:24:48;4.03;;;1.60;;
76035;SDS011;64732;56.314;44.068;2023-05-10T20:27:09;4.28;;;1.40;;
76035;SDS011;64732;56.314;44.068;2023-05-10T20:29:33;4.70;;;2.15;;
76035;SDS011;64732;56.314;44.068;2023-05-10T20:31:54;4.70;;;1.58;;
76035;SDS011;64732;56.314;44.068;2023-05-10T20:34:15;5.47;;;1.73;;
76035;SDS011;64732;56.314;44.068;2023-05-10T20:36:36;3.40;;;1.65;;
76035;SDS011;64732;56.314;44.068;2023-05-10T20:38:56;2.72;;;1.38;;
76035;SDS011;64732;56.314;44.068;2023-05-10T20:41:17;4.55;;;1.70;;
76035;SDS011;64732;56.314;44.068;2023-05-10T20:43:39;7.18;;;2.22;;
76035;SDS011;64732;56.314;44.068;2023-05-10T20:46:03;10.35;;;2.30;;
76035;SDS011;64732;56.314;44.068;2023-05-10T20:48:33;4.63;;;1.38;;
76035;SDS011;64732;56.314;44.068;2023-05-10T20:50:54;3.23;;;1.40;;
76035;SDS011;64732;56.314;44.068;2023-05-10T20:53:14;6.55;;;2.00;;
76035;SDS011;64732;56.314;44.068;2023-05-10T20:55:35;3.15;;;1.60;;
76035;SDS011;64732;56.314;44.068;2023-05-10T20:57:56;2.60;;;1.40;;
76035;SDS011;64732;56.314;44.068;2023-05-10T21:00:17;3.20;;;1.52;;
76035;SDS011;64732;56.314;44.068;2023-05-10T21:02:43;3.35;;;1.42;;
76035;SDS011;64732;56.314;44.068;2023-05-10T21:05:05;7.60;;;1.75;;
76035;SDS011;64732;56.314;44.068;2023-05-10T21:07:26;3.58;;;1.80;;
76035;SDS011;64732;56.314;44.068;2023-05-10T21:09:47;3.35;;;1.40;;
76035;SDS011;64732;56.314;44.068;2023-05-10T21:12:08;2.58;;;1.40;;
76035;SDS011;64732;56.314;44.068;2023-05-10T21:14:29;2.83;;;1.27;;
76035;SDS011;64732;56.314;44.068;2023-05-10T21:16:51;3.15;;;1.55;;
76035;SDS011;64732;56.314;44.068;2023-05-10T21:19:14;4.88;;;1.63;;
76035;SDS011;64732;56.314;44.068;2023-05-10T21:21:35;2.63;;;1.35;;
76035;SDS011;64732;56.314;44.068;2023-05-10T21:23:56;3.88;;;1.40;;
76035;SDS011;64732;56.314;44.068;2023-05-10T21:26:20;3.78;;;1.40;;
76035;SDS011;64732;56.314;44.068;2023-05-10T21:28:41;3.35;;;1.60;;
76035;SDS011;64732;56.314;44.068;2023-05-10T21:31:03;3.22;;;1.30;;
76035;SDS011;64732;56.314;44.068;2023-05-10T21:33:24;3.67;;;1.60;;
76035;SDS011;64732;56.314;44.068;2023-05-10T21:35:47;5.45;;;1.52;;
76035;SDS011;64732;56.314;44.068;2023-05-10T21:38:08;2.45;;;1.35;;
76035;SDS011;64732;56.314;44.068;2023-05-10T21:40:29;2.88;;;1.60;;
76035;SDS011;64732;56.314;44.068;2023-05-10T21:42:50;4.05;;;1.60;;
76035;SDS011;64732;56.314;44.068;2023-05-10T21:45:11;3.47;;;1.60;;
76035;SDS011;64732;56.314;44.068;2023-05-10T21:47:32;6.00;;;1.55;;
76035;SDS011;64732;56.314;44.068;2023-05-10T21:49:53;6.88;;;2.10;;
76035;SDS011;64732;56.314;44.068;2023-05-10T21:52:16;5.15;;;1.90;;
76035;SDS011;64732;56.314;44.068;2023-05-10T21:54:37;3.30;;;1.67;;
76035;SDS011;64732;56.314;44.068;2023-05-10T21:56:58;5.53;;;1.75;;
76035;SDS011;64732;56.314;44.068;2023-05-10T21:59:19;2.72;;;1.48;;
76035;SDS011;64732;56.314;44.068;2023-05-10T22:01:40;3.50;;;1.58;;
76035;SDS011;64732;56.314;44.068;2023-05-10T22:04:01;3.00;;;1.40;;
76035;SDS011;64732;56.314;44.068;2023-05-10T22:06:22;4.78;;;1.67;;
76035;SDS011;64732;56.314;44.068;2023-05-10T22:08:46;2.83;;;1.42;;
76035;SDS011;64732;56.314;44.068;2023-05-10T22:11:06;5.88;;;1.15;;
76035;SDS011;64732;56.314;44.068;2023-05-10T22:13:27;7.22;;;2.00;;
76035;SDS011;64732;56.314;44.068;2023-05-10T22:15:48;4.13;;;1.90;;
76035;SDS011;64732;56.314;44.068;2023-05-10T22:18:09;4.13;;;1.60;;
76035;SDS011;64732;56.314;44.068;2023-05-10T22:20:30;4.72;;;1.60;;
76035;SDS011;64732;56.314;44.068;2023-05-10T22:22:52;3.05;;;1.58;;
76035;SDS011;64732;56.314;44.068;2023-05-10T22:25:16;2.83;;;1.55;;
76035;SDS011;64732;56.314;44.068;2023-05-10T22:27:37;6.28;;;1.90;;
76035;SDS011;64732;56.314;44.068;2023-05-10T22:29:58;2.47;;;1.23;;
76035;SDS011;64732;56.314;44.068;2023-05-10T22:32:19;4.43;;;1.50;;
76035;SDS011;64732;56.314;44.068;2023-05-10T22:34:40;2.65;;;1.50;;
76035;SDS011;64732;56.314;44.068;2023-05-10T22:37:01;2.92;;;1.63;;
76035;SDS011;64732;56.314;44.068;2023-05-10T22:39:22;4.97;;;1.85;;
76035;SDS011;64732;56.314;44.068;2023-05-10T22:41:45;5.10;;;1.67;;
76035;SDS011;64732;56.314;44.068;2023-05-10T22:44:06;4.43;;;1.75;;
76035;SDS011;64732;56.314;44.068;2023-05-10T22:46:27;5.18;;;2.85;;
76035;SDS011;64732;56.314;44.068;2023-05-10T22:48:50;3.83;;;1.90;;
76035;SDS011;64732;56.314;44.068;2023-05-10T22:51:11;3.45;;;1.50;;
76035;SDS011;64732;56.314;44.068;2023-05-10T22:53:32;6.05;;;1.80;;
76035;SDS011;64732;56.314;44.068;2023-05-10T22:55:53;3.50;;;1.55;;
76035;SDS011;64732;56.314;44.068;2023-05-10T22:58:17;7.25;;;2.17;;
76035;SDS011;64732;56.314;44.068;2023-05-10T23:00:38;3.60;;;1.60;;
76035;SDS011;64732;56.314;44.068;2023-05-10T23:02:59;3.55;;;1.60;;
76035;SDS011;64732;56.314;44.068;2023-05-10T23:05:20;4.20;;;1.95;;
76035;SDS011;64732;56.314;44.068;2023-05-10T23:07:41;2.78;;;1.40;;
76035;SDS011;64732;56.314;44.068;2023-05-10T23:10:02;5.57;;;1.73;;
76035;SDS011;64732;56.314;44.068;2023-05-10T23:12:24;3.67;;;1.77;;
76035;SDS011;64732;56.314;44.068;2023-05-10T23:14:48;3.28;;;1.75;;
76035;SDS011;64732;56.314;44.068;2023-05-10T23:17:09;3.13;;;1.70;;
76035;SDS011;64732;56.314;44.068;2023-05-10T23:19:30;3.25;;;1.88;;
76035;SDS011;64732;56.314;44.068;2023-05-10T23:21:51;4.50;;;1.60;;
76035;SDS011;64732;56.314;44.068;2023-05-10T23:24:12;3.60;;;1.60;;
76035;SDS011;64732;56.314;44.068;2023-05-10T23:26:33;4.13;;;1.80;;
76035;SDS011;64732;56.314;44.068;2023-05-10T23:28:54;3.85;;;1.55;;
76035;SDS011;64732;56.314;44.068;2023-05-10T23:31:17;3.30;;;1.80;;
76035;SDS011;64732;56.314;44.068;2023-05-10T23:33:38;3.35;;;1.77;;
76035;SDS011;64732;56.314;44.068;2023-05-10T23:35:59;3.08;;;1.48;;
76035;SDS011;64732;56.314;44.068;2023-05-10T23:38:20;3.67;;;1.80;;
76035;SDS011;64732;56.314;44.068;2023-05-10T23:40:41;3.60;;;1.60;;
76035;SDS011;64732;56.314;44.068;2023-05-10T23:43:02;3.78;;;1.60;;
76035;SDS011;64732;56.314;44.068;2023-05-10T23:45:23;3.47;;;1.73;;
76035;SDS011;64732;56.314;44.068;2023-05-10T23:47:57;3.30;;;2.00;;
76035;SDS011;64732;56.314;44.068;2023-05-10T23:50:29;3.35;;;1.60;;
76035;SDS011;64732;56.314;44.068;2023-05-10T23:52:50;3.90;;;2.45;;
76035;SDS011;64732;56.314;44.068;2023-05-10T23:55:10;6.47;;;2.08;;
76035;SDS011;64732;56.314;44.068;2023-05-10T23:57:31;4.47;;;2.10;;
76035;SDS011;64732;56.314;44.068;2023-05-10T23:59:52;3.65;;;1.50;;
